KNEL/NEL METAR and TAF weather

Enter ICAO airport designator
Station Type Date Time Source
KNEL METAR 2020/04/06 11:00 UTC NOAA

KNEL 061100Z AUTO 04003KT 10SM SCT030 BKN075 10/08 A3002 RMK AO2 SLP165 T01000083 $


Station Type Date Time Source
KNEL Decoded METAR 2020/04/06 11:00 UTC NOAA

Lakehurst Naval Air Station, NJ, United States (KNEL) 40-02N 074-19W 24M
Apr 06, 2020 - 07:00 AM EDT / 2020.04.06 1100 UTC
Wind: from the NE (040 degrees) at 3 MPH (3 KT):0
Visibility: 10 mile(s):0
Sky conditions: mostly cloudy
Temperature: 50.0 F (10.0 C)
Dew Point: 46.9 F (8.3 C)
Relative Humidity: 89%
Pressure (altimeter): 30.02 in. Hg (1016 hPa)
ob: KNEL 061100Z AUTO 04003KT 10SM SCT030 BKN075 10/08 A3002 RMK AO2 SLP165 T01000083
cycle: 11

Station Type Date Time Source
KNEL TAF UTC NOAA

Error!

Example: see airport list